Time;durP1;ratioP1;P1;durP2;ratioP2;P2;SDS_P1;SDS_P2;PMS_P1;PMS_P2;Temp;Humidity;BMP_temperature;BMP_pressure;BME280_temperature;BME280_humidity;BME280_pressure;Samples;Min_cycle;Max_cycle;Signal;HPM_P1;HPM_P2
2023/04/12 00:01:29;;;;;;;;;;;;;;;21.96;30.54;96369.97;4981347;28;1002;-80
2023/04/12 00:03:54;;;;;;;;;;;;;;;21.63;31.29;96379.41;4996953;28;1002;-80
2023/04/12 00:06:31;;;;;;;;;;;;;;;21.69;31.10;96374.63;4997011;28;1030;-80
2023/04/12 00:08:57;;;;;;;;;;;;;;;22.04;30.89;96371.94;4965737;28;981;-78
2023/04/12 00:11:23;;;;;;;;;;;;;;;22.36;30.60;96367.38;4980699;28;2028;-80
2023/04/12 00:13:48;;;;;;;;;;;;;;;22.33;30.21;96371.19;4964592;28;1232;-80
2023/04/12 00:16:14;;;;;;;;;;;;;;;22.20;30.73;96365.03;4980585;28;1895;-80
2023/04/12 00:18:41;;;;;;;;;;;;;;;21.78;31.14;96368.09;4996525;28;937;-80
2023/04/12 00:21:07;;;;;;;;;;;;;;;21.63;31.23;96376.56;4980892;28;937;-80
2023/04/12 00:23:33;;;;;;;;;;;;;;;21.70;30.80;96370.50;5030998;28;918;-80
2023/04/12 00:25:58;;;;;;;;;;;;;;;21.84;30.94;96381.09;5038920;28;1565;-80
2023/04/12 00:28:25;;;;;;;;;;;;;;;21.61;31.09;96381.94;5003805;28;1323;-80
2023/04/12 00:30:50;;;;;;;;;;;;;;;21.94;31.09;96383.84;5038745;28;970;-80
2023/04/12 00:33:16;;;;;;;;;;;;;;;22.29;30.44;96387.63;5038043;28;845;-80
2023/04/12 00:35:41;;;;;;;;;;;;;;;22.31;30.45;96385.06;5038385;28;974;-80
2023/04/12 00:38:09;;;;;;;;;;;;;;;22.31;30.47;96379.41;5016278;28;1902;-79
2023/04/12 00:40:39;;;;;;;;;;;;;;;22.01;30.53;96374.97;4965489;28;1351;-80
2023/04/12 00:43:05;;;;;;;;;;;;;;;21.64;31.14;96377.34;4998869;28;1063;-80
2023/04/12 00:45:31;;;;;;;;;;;;;;;21.75;30.71;96377.56;4997442;28;1282;-80
2023/04/12 00:47:56;;;;;;;;;;;;;;;21.91;31.12;96373.47;5016286;28;1473;-80
2023/04/12 00:50:22;;;;;;;;;;;;;;;22.07;30.84;96367.34;5016897;28;1031;-80
2023/04/12 00:52:50;;;;;;;;;;;;;;;22.21;30.43;96366.59;5035754;28;946;-79
2023/04/12 00:55:16;;;;;;;;;;;;;;;21.64;30.93;96372.47;5019019;28;1030;-79
2023/04/12 00:57:42;;;;;;;;;;;;;;;21.62;30.73;96358.03;5002710;28;1988;-80
2023/04/12 01:00:11;;;;;;;;;;;;;;;21.93;30.04;96366.06;5033766;28;1488;-80
2023/04/12 01:02:41;;;;;;;;;;;;;;;21.78;30.46;96371.72;5000107;28;1040;-80
2023/04/12 01:05:06;;;;;;;;;;;;;;;21.54;31.08;96368.91;4982428;28;1326;-79
2023/04/12 01:07:46;;;;;;;;;;;;;;;21.71;30.73;96365.63;4979999;28;1162;-80
2023/04/12 01:10:23;;;;;;;;;;;;;;;21.65;30.75;96373.25;4979912;28;1101;-80
2023/04/12 01:13:01;;;;;;;;;;;;;;;21.96;30.80;96369.97;4979865;28;1223;-78
2023/04/12 01:15:26;;;;;;;;;;;;;;;22.48;29.86;96364.72;4979439;28;1769;-80
2023/04/12 01:17:59;;;;;;;;;;;;;;;22.32;30.16;96369.63;4963393;28;1955;-79
2023/04/12 01:20:30;;;;;;;;;;;;;;;22.20;30.47;96367.09;4980149;28;1309;-80
2023/04/12 01:23:13;;;;;;;;;;;;;;;22.13;30.25;96370.31;4979821;28;1121;-79
2023/04/12 01:25:45;;;;;;;;;;;;;;;21.81;30.42;96365.09;4995964;28;978;-80
2023/04/12 01:28:11;;;;;;;;;;;;;;;21.58;30.95;96369.53;4963155;28;1219;-80
2023/04/12 01:30:38;;;;;;;;;;;;;;;21.93;30.65;96366.06;4974345;28;2012;-80
2023/04/12 01:33:04;;;;;;;;;;;;;;;22.26;30.36;96365.91;4943651;28;1091;-79
2023/04/12 01:35:30;;;;;;;;;;;;;;;22.04;30.49;96359.84;4944064;28;1136;-80
2023/04/12 01:37:59;;;;;;;;;;;;;;;22.06;30.01;96362.94;4948897;28;1902;-80
2023/04/12 01:40:27;;;;;;;;;;;;;;;21.92;30.07;96353.19;4979266;28;1118;-80
2023/04/12 01:43:05;;;;;;;;;;;;;;;21.87;30.09;96361.59;4979371;28;898;-80
2023/04/12 01:45:31;;;;;;;;;;;;;;;21.81;30.41;96361.44;4979020;28;1530;-80
2023/04/12 01:47:57;;;;;;;;;;;;;;;21.67;30.48;96360.19;4979139;28;999;-80
2023/04/12 01:50:24;;;;;;;;;;;;;;;22.03;30.52;96369.59;4963099;28;1144;-80
2023/04/12 01:53:01;;;;;;;;;;;;;;;22.32;30.11;96366.00;4947355;28;1335;-80
2023/04/12 01:55:27;;;;;;;;;;;;;;;22.29;30.15;96364.94;4979641;28;1056;-80
2023/04/12 01:57:53;;;;;;;;;;;;;;;22.02;30.23;96351.03;4963040;28;1956;-80
2023/04/12 02:00:19;;;;;;;;;;;;;;;21.59;31.01;96356.16;4962721;28;1957;-80
2023/04/12 02:02:44;;;;;;;;;;;;;;;21.47;30.97;96362.88;4980629;28;903;-80
2023/04/12 02:05:10;;;;;;;;;;;;;;;21.77;30.32;96364.50;4964059;28;905;-80
2023/04/12 02:07:36;;;;;;;;;;;;;;;21.80;30.66;96363.50;4980249;28;868;-80
2023/04/12 02:10:02;;;;;;;;;;;;;;;21.61;30.93;96372.66;4997247;28;909;-80
2023/04/12 02:12:28;;;;;;;;;;;;;;;21.69;30.74;96366.13;4949798;28;1779;-80
2023/04/12 02:14:56;;;;;;;;;;;;;;;21.69;30.65;96371.00;4983303;28;1422;-80
2023/04/12 02:17:21;;;;;;;;;;;;;;;22.06;30.63;96379.94;4962233;28;1987;-80
2023/04/12 02:19:47;;;;;;;;;;;;;;;22.15;30.12;96365.72;4963278;28;1243;-79
2023/04/12 02:22:14;;;;;;;;;;;;;;;22.13;30.39;96362.59;4949503;29;2006;-80
2023/04/12 02:24:40;;;;;;;;;;;;;;;22.12;29.74;96378.00;4944363;29;1075;-80
2023/04/12 02:27:05;;;;;;;;;;;;;;;21.81;30.48;96370.75;4943793;29;936;-80
2023/04/12 02:29:32;;;;;;;;;;;;;;;21.67;30.48;96370.72;4922569;28;1939;-80
2023/04/12 02:31:58;;;;;;;;;;;;;;;21.82;30.24;96366.66;4931654;28;1278;-79
2023/04/12 02:34:25;;;;;;;;;;;;;;;21.66;30.44;96366.31;4944020;29;922;-79
2023/04/12 02:37:02;;;;;;;;;;;;;;;21.74;30.56;96367.50;4935325;28;2250;-79
2023/04/12 02:39:31;;;;;;;;;;;;;;;21.77;30.39;96364.50;4978679;28;1042;-79
2023/04/12 02:41:57;;;;;;;;;;;;;;;22.44;29.55;96358.50;4963156;28;1133;-80
2023/04/12 02:44:23;;;;;;;;;;;;;;;22.38;29.78;96369.72;4970579;28;1729;-80
2023/04/12 02:47:05;;;;;;;;;;;;;;;22.23;29.84;96366.13;4960219;29;1298;-80
2023/04/12 02:49:32;;;;;;;;;;;;;;;22.15;30.17;96368.56;4981822;28;1390;-80
2023/04/12 02:51:58;;;;;;;;;;;;;;;21.75;30.31;96364.19;4998796;28;1278;-79
2023/04/12 02:54:31;;;;;;;;;;;;;;;21.67;30.44;96360.19;4998791;28;1098;-80
2023/04/12 02:56:57;;;;;;;;;;;;;;;21.82;30.55;96360.22;4992599;28;1914;-81
2023/04/12 02:59:35;;;;;;;;;;;;;;;22.20;30.17;96362.22;4976954;28;1926;-80
2023/04/12 03:02:12;;;;;;;;;;;;;;;22.42;29.89;96355.34;4985615;28;2031;-80
2023/04/12 03:04:38;;;;;;;;;;;;;;;22.29;29.89;96353.63;5004350;28;1790;-80
2023/04/12 03:07:09;;;;;;;;;;;;;;;21.74;30.57;96359.78;5006445;28;1372;-80
2023/04/12 03:09:43;;;;;;;;;;;;;;;21.81;30.55;96359.44;5006564;28;1244;-80
2023/04/12 03:12:11;;;;;;;;;;;;;;;21.45;31.04;96354.06;5006049;28;1206;-80
2023/04/12 03:14:45;;;;;;;;;;;;;;;21.61;30.82;96359.28;5020941;28;1660;-80
2023/04/12 03:17:10;;;;;;;;;;;;;;;21.70;30.84;96364.06;4986182;28;1890;-80
2023/04/12 03:19:36;;;;;;;;;;;;;;;21.65;30.99;96368.34;4965273;28;1164;-80
2023/04/12 03:22:03;;;;;;;;;;;;;;;21.42;31.42;96357.88;4949010;28;1789;-80
2023/04/12 03:24:33;;;;;;;;;;;;;;;21.63;31.04;96370.91;4981833;28;1560;-80
2023/04/12 03:27:02;;;;;;;;;;;;;;;21.82;30.85;96368.69;4965850;28;1174;-80
2023/04/12 03:29:30;;;;;;;;;;;;;;;22.37;30.08;96359.66;4962834;28;1892;-80
2023/04/12 03:31:57;;;;;;;;;;;;;;;22.33;30.05;96361.94;4965821;28;1121;-81
2023/04/12 03:34:23;;;;;;;;;;;;;;;22.41;29.96;96382.13;4958204;29;943;-80
2023/04/12 03:36:53;;;;;;;;;;;;;;;21.97;30.77;96378.00;4958785;29;1973;-80
2023/04/12 03:39:27;;;;;;;;;;;;;;;21.57;30.95;96384.16;4943677;29;1302;-80
2023/04/12 03:41:53;;;;;;;;;;;;;;;21.96;30.23;96392.63;4942900;29;1460;-80
2023/04/12 03:44:25;;;;;;;;;;;;;;;21.65;31.23;96393.84;4911462;29;1462;-80
2023/04/12 03:46:53;;;;;;;;;;;;;;;21.54;31.23;96391.56;4943085;29;1217;-80
2023/04/12 03:49:20;;;;;;;;;;;;;;;21.52;31.31;96394.09;4922810;29;1632;-80
2023/04/12 03:51:49;;;;;;;;;;;;;;;21.44;31.66;96403.44;4923550;29;1292;-80
2023/04/12 03:54:15;;;;;;;;;;;;;;;22.54;29.96;96391.91;4938927;29;1049;-80
2023/04/12 03:57:03;;;;;;;;;;;;;;;22.24;30.39;96408.13;4948624;28;1902;-78
2023/04/12 03:59:55;;;;;;;;;;;;;;;22.20;30.52;96401.09;4919922;29;1004;-80
2023/04/12 04:02:25;;;;;;;;;;;;;;;22.02;30.33;96402.81;4889811;29;1250;-80
2023/04/12 04:04:52;;;;;;;;;;;;;;;21.81;30.78;96393.41;4888559;29;1209;-79
2023/04/12 04:07:25;;;;;;;;;;;;;;;21.81;30.95;96395.44;4905670;29;1130;-80
2023/04/12 04:09:53;;;;;;;;;;;;;;;21.55;31.34;96398.00;4904555;29;1161;-80
2023/04/12 04:12:19;;;;;;;;;;;;;;;21.62;31.15;96400.47;4919848;29;1263;-79
2023/04/12 04:14:49;;;;;;;;;;;;;;;21.79;31.25;96398.75;4888739;29;1039;-80
2023/04/12 04:17:26;;;;;;;;;;;;;;;22.26;30.64;96405.56;4904225;29;1883;-80
2023/04/12 04:19:52;;;;;;;;;;;;;;;22.51;30.04;96414.78;4903646;29;1037;-79
2023/04/12 04:22:20;;;;;;;;;;;;;;;22.23;30.57;96412.25;4920120;29;970;-78
2023/04/12 04:24:50;;;;;;;;;;;;;;;21.58;31.24;96402.72;4903470;29;1235;-80
2023/04/12 04:27:19;;;;;;;;;;;;;;;21.95;30.56;96402.41;4919780;29;1221;-80
2023/04/12 04:29:46;;;;;;;;;;;;;;;21.75;30.55;96406.66;4889941;29;1263;-79
2023/04/12 04:32:15;;;;;;;;;;;;;;;21.91;31.13;96410.28;4916147;29;959;-80
2023/04/12 04:34:42;;;;;;;;;;;;;;;22.53;30.20;96409.38;4915919;29;1241;-80
2023/04/12 04:37:14;;;;;;;;;;;;;;;22.68;29.86;96407.31;4972117;28;1969;-81
2023/04/12 04:39:43;;;;;;;;;;;;;;;22.30;30.46;96400.50;4992252;28;1104;-80
2023/04/12 04:42:09;;;;;;;;;;;;;;;22.07;30.66;96412.66;4977097;28;1154;-80
2023/04/12 04:44:39;;;;;;;;;;;;;;;22.10;30.43;96411.69;4960531;28;1174;-81
2023/04/12 04:47:07;;;;;;;;;;;;;;;21.91;30.70;96404.63;4977009;28;1338;-81
2023/04/12 04:49:33;;;;;;;;;;;;;;;22.08;31.29;96405.75;4993898;28;1541;-80
2023/04/12 04:52:07;;;;;;;;;;;;;;;22.40;30.40;96403.25;4985297;28;1390;-81
2023/04/12 04:54:33;;;;;;;;;;;;;;;22.25;30.55;96415.34;4984133;28;1127;-81
2023/04/12 04:57:00;;;;;;;;;;;;;;;21.94;31.00;96406.50;4984541;28;1985;-81
2023/04/12 04:59:26;;;;;;;;;;;;;;;21.94;30.77;96418.59;5000599;28;1094;-80
2023/04/12 05:01:59;;;;;;;;;;;;;;;21.77;30.77;96401.31;4985097;28;1165;-81
2023/04/12 05:04:25;;;;;;;;;;;;;;;21.66;31.25;96403.09;5032926;28;1107;-81
2023/04/12 05:06:50;;;;;;;;;;;;;;;21.84;30.92;96412.25;4960288;28;1355;-80
2023/04/12 05:09:20;;;;;;;;;;;;;;;21.91;30.51;96407.47;4944570;28;1178;-81
2023/04/12 05:11:53;;;;;;;;;;;;;;;21.88;31.00;96409.22;4960650;28;1276;-80
2023/04/12 05:14:19;;;;;;;;;;;;;;;22.45;30.51;96413.91;4960246;28;833;-80
2023/04/12 05:16:45;;;;;;;;;;;;;;;22.63;30.00;96405.16;4941039;29;1911;-81
2023/04/12 05:19:10;;;;;;;;;;;;;;;22.42;30.37;96412.81;4925145;29;1154;-81
2023/04/12 05:21:36;;;;;;;;;;;;;;;22.32;30.28;96409.28;4909694;29;1235;-81
2023/04/12 05:24:01;;;;;;;;;;;;;;;21.94;30.63;96415.00;4909255;29;956;-81
2023/04/12 05:26:29;;;;;;;;;;;;;;;21.61;31.07;96415.13;4909822;29;1063;-81
2023/04/12 05:28:57;;;;;;;;;;;;;;;21.81;31.16;96403.94;4925541;29;1361;-81
2023/04/12 05:31:23;;;;;;;;;;;;;;;21.95;30.77;96413.72;4941177;29;1136;-81
2023/04/12 05:33:49;;;;;;;;;;;;;;;21.84;30.67;96412.25;4925197;29;1289;-81
2023/04/12 05:36:16;;;;;;;;;;;;;;;21.86;30.58;96406.09;4940854;29;1902;-81
2023/04/12 05:38:42;;;;;;;;;;;;;;;22.20;30.42;96401.88;4990431;28;1010;-80
2023/04/12 05:41:11;;;;;;;;;;;;;;;22.52;30.07;96413.50;4941135;29;1171;-80
2023/04/12 05:43:37;;;;;;;;;;;;;;;22.22;30.63;96413.47;4924923;29;1061;-81
2023/04/12 05:46:06;;;;;;;;;;;;;;;21.96;31.04;96416.06;4956952;29;1115;-80
2023/04/12 05:48:32;;;;;;;;;;;;;;;21.98;30.58;96409.94;4940363;29;1242;-80
2023/04/12 05:51:00;;;;;;;;;;;;;;;21.61;31.04;96413.06;4926126;29;1213;-81
2023/04/12 05:53:28;;;;;;;;;;;;;;;21.92;30.31;96406.22;4925251;29;1213;-81
2023/04/12 05:55:58;;;;;;;;;;;;;;;21.69;30.80;96408.59;4941760;29;1283;-81
2023/04/12 05:58:24;;;;;;;;;;;;;;;21.85;30.66;96410.97;4925167;29;1982;-81
2023/04/12 06:00:54;;;;;;;;;;;;;;;21.58;31.21;96414.03;4922791;29;1168;-81
2023/04/12 06:03:20;;;;;;;;;;;;;;;22.24;30.49;96402.47;4906001;29;1304;-81
2023/04/12 06:05:47;;;;;;;;;;;;;;;22.28;30.51;96403.06;4938456;29;1173;-81
2023/04/12 06:08:13;;;;;;;;;;;;;;;22.65;29.83;96402.66;4922089;29;1255;-81
2023/04/12 06:10:41;;;;;;;;;;;;;;;22.18;30.39;96403.63;4922144;29;1126;-81
2023/04/12 06:13:07;;;;;;;;;;;;;;;22.02;30.51;96408.47;4905793;29;1125;-81
2023/04/12 06:15:35;;;;;;;;;;;;;;;22.03;30.40;96414.91;4924898;29;1212;-81
2023/04/12 06:18:00;;;;;;;;;;;;;;;21.93;30.21;96404.94;4918830;29;2249;-81
2023/04/12 06:20:26;;;;;;;;;;;;;;;21.85;30.71;96410.97;4944270;29;1148;-80
2023/04/12 06:22:52;;;;;;;;;;;;;;;21.71;31.04;96400.41;4944069;29;1167;-81
2023/04/12 06:25:19;;;;;;;;;;;;;;;22.17;31.06;96408.50;4959917;29;1183;-81
2023/04/12 06:27:46;;;;;;;;;;;;;;;22.27;30.88;96407.13;4959990;29;1144;-79
2023/04/12 06:30:14;;;;;;;;;;;;;;;22.41;30.55;96407.63;4940477;29;1288;-81
2023/04/12 06:32:40;;;;;;;;;;;;;;;22.29;30.96;96413.13;4940614;29;1315;-80
2023/04/12 06:35:06;;;;;;;;;;;;;;;22.21;30.58;96409.09;4924715;29;1132;-81
2023/04/12 06:37:32;;;;;;;;;;;;;;;21.88;30.76;96408.44;4940359;29;1899;-81
2023/04/12 06:39:58;;;;;;;;;;;;;;;21.80;30.96;96408.81;4940452;29;1185;-81
2023/04/12 06:42:23;;;;;;;;;;;;;;;21.73;31.23;96420.50;4940942;29;962;-80
2023/04/12 06:44:49;;;;;;;;;;;;;;;21.82;31.07;96422.50;4925098;29;1018;-81
2023/04/12 06:47:15;;;;;;;;;;;;;;;21.81;30.73;96418.88;4940461;29;1070;-81
2023/04/12 06:49:40;;;;;;;;;;;;;;;21.99;30.91;96419.97;4959732;28;1092;-81
2023/04/12 06:52:06;;;;;;;;;;;;;;;22.28;30.66;96425.72;4943962;29;983;-81
2023/04/12 06:54:32;;;;;;;;;;;;;;;22.42;30.46;96423.38;4943245;29;944;-80
2023/04/12 06:56:57;;;;;;;;;;;;;;;22.32;30.60;96426.28;4940392;29;1911;-81
2023/04/12 06:59:23;;;;;;;;;;;;;;;21.93;30.77;96434.03;4940227;29;838;-80
2023/04/12 07:01:49;;;;;;;;;;;;;;;21.74;31.24;96424.13;4940204;29;881;-81
2023/04/12 07:04:15;;;;;;;;;;;;;;;22.04;30.03;96422.16;4938807;29;1100;-81
2023/04/12 07:06:41;;;;;;;;;;;;;;;21.85;30.32;96427.19;4943857;28;1018;-81
2023/04/12 07:09:07;;;;;;;;;;;;;;;22.00;30.86;96432.88;4978350;28;1029;-82
2023/04/12 07:11:32;;;;;;;;;;;;;;;22.57;30.17;96435.47;4978689;28;1001;-81
2023/04/12 07:13:58;;;;;;;;;;;;;;;22.33;30.74;96442.03;4978232;28;930;-81
2023/04/12 07:16:24;;;;;;;;;;;;;;;22.11;31.00;96438.78;4978879;28;1990;-81
2023/04/12 07:18:50;;;;;;;;;;;;;;;21.94;30.74;96440.47;4994751;28;1107;-81
2023/04/12 07:21:16;;;;;;;;;;;;;;;21.77;30.86;96443.78;4962488;28;1025;-81
2023/04/12 07:23:42;;;;;;;;;;;;;;;21.68;30.84;96455.16;4980950;28;985;-81
2023/04/12 07:26:08;;;;;;;;;;;;;;;21.76;30.89;96447.88;4982270;28;1283;-81
2023/04/12 07:28:35;;;;;;;;;;;;;;;21.57;31.27;96452.09;4996808;28;1010;-80
2023/04/12 07:31:03;;;;;;;;;;;;;;;21.70;30.60;96446.94;5002392;28;1005;-82
2023/04/12 07:33:29;;;;;;;;;;;;;;;22.33;30.33;96447.72;4985385;28;1141;-81
2023/04/12 07:35:55;;;;;;;;;;;;;;;22.31;30.59;96447.41;5002158;28;1171;-82
2023/04/12 07:38:21;;;;;;;;;;;;;;;22.32;30.55;96460.28;5018198;28;1997;-81
2023/04/12 07:40:46;;;;;;;;;;;;;;;22.29;30.82;96449.94;5005564;28;1761;-81
2023/04/12 07:43:12;;;;;;;;;;;;;;;22.20;30.16;96452.88;5021248;28;1279;-81
2023/04/12 07:45:37;;;;;;;;;;;;;;;21.89;30.86;96449.66;5038551;28;1068;-81
2023/04/12 07:48:03;;;;;;;;;;;;;;;22.03;30.14;96448.91;5021466;28;950;-81
2023/04/12 07:50:29;;;;;;;;;;;;;;;21.75;30.77;96446.28;5020831;28;958;-80
2023/04/12 07:52:57;;;;;;;;;;;;;;;22.34;30.68;96445.66;5020762;28;965;-81
2023/04/12 07:55:22;;;;;;;;;;;;;;;22.15;30.88;96447.88;5021219;28;1057;-80
2023/04/12 07:57:48;;;;;;;;;;;;;;;22.51;30.31;96451.63;5038641;28;1898;-80
2023/04/12 08:00:15;;;;;;;;;;;;;;;22.46;30.48;96435.28;5021139;28;928;-79
2023/04/12 08:02:40;;;;;;;;;;;;;;;21.97;30.90;96440.31;4977362;28;958;-80
2023/04/12 08:05:06;;;;;;;;;;;;;;;21.83;30.62;96441.03;4961463;28;1393;-81
2023/04/12 08:07:33;;;;;;;;;;;;;;;21.90;30.65;96437.06;4977908;28;973;-81
2023/04/12 08:09:59;;;;;;;;;;;;;;;22.06;30.08;96443.03;4977353;28;1108;-81
2023/04/12 08:12:25;;;;;;;;;;;;;;;22.10;30.53;96454.19;4939000;29;982;-81
2023/04/12 08:14:50;;;;;;;;;;;;;;;21.72;31.04;96447.25;4906531;29;1003;-80
2023/04/12 08:17:17;;;;;;;;;;;;;;;21.99;30.55;96443.41;4922888;29;1898;-81
2023/04/12 08:19:44;;;;;;;;;;;;;;;21.80;30.82;96442.78;4938662;29;918;-80
2023/04/12 08:22:09;;;;;;;;;;;;;;;22.22;31.16;96441.03;4938528;29;1169;-80
2023/04/12 08:24:35;;;;;;;;;;;;;;;22.65;30.83;96445.16;4906744;29;1153;-80
2023/04/12 08:27:01;;;;;;;;;;;;;;;22.27;31.59;96449.63;4938617;29;889;-80
2023/04/12 08:29:26;;;;;;;;;;;;;;;22.34;31.58;96437.94;4938341;29;1148;-81
2023/04/12 08:31:52;;;;;;;;;;;;;;;22.10;31.54;96442.84;4922844;29;908;-80
2023/04/12 08:34:19;;;;;;;;;;;;;;;22.05;31.19;96440.69;4932908;29;968;-80
2023/04/12 08:36:45;;;;;;;;;;;;;;;21.89;31.07;96444.75;4884193;29;1912;-80
2023/04/12 08:39:10;;;;;;;;;;;;;;;22.09;30.90;96442.06;4869083;29;879;-81
2023/04/12 08:41:36;;;;;;;;;;;;;;;22.38;31.66;96445.44;4884696;29;998;-80
2023/04/12 08:44:01;;;;;;;;;;;;;;;22.66;31.17;96438.22;4884578;29;1213;-81
2023/04/12 08:46:28;;;;;;;;;;;;;;;22.68;31.19;96441.34;4885191;29;944;-80
2023/04/12 08:48:56;;;;;;;;;;;;;;;22.56;31.56;96445.25;4867101;29;924;-80
2023/04/12 08:51:21;;;;;;;;;;;;;;;22.29;31.64;96449.16;4869286;29;1095;-81
2023/04/12 08:53:47;;;;;;;;;;;;;;;22.28;31.07;96441.94;4868978;29;1141;-80
2023/04/12 08:56:13;;;;;;;;;;;;;;;22.16;31.10;96446.59;4884889;29;941;-81
2023/04/12 08:58:40;;;;;;;;;;;;;;;22.19;31.17;96428.63;4868704;29;1911;-80
2023/04/12 09:01:14;;;;;;;;;;;;;;;22.11;31.13;96435.94;4869149;29;1021;-81
2023/04/12 09:03:43;;;;;;;;;;;;;;;22.16;31.18;96446.59;4849992;29;1236;-81
2023/04/12 09:06:09;;;;;;;;;;;;;;;21.90;31.53;96448.38;4844353;29;935;-81
2023/04/12 09:08:35;;;;;;;;;;;;;;;22.26;30.65;96450.91;4813708;29;1108;-81
2023/04/12 09:11:01;;;;;;;;;;;;;;;21.87;31.38;96449.38;4817924;29;916;-81
2023/04/12 09:13:33;;;;;;;;;;;;;;;21.76;31.38;96449.91;4850909;29;1025;-81
2023/04/12 09:15:59;;;;;;;;;;;;;;;21.81;31.25;96444.38;4866220;29;1134;-81
2023/04/12 09:18:26;;;;;;;;;;;;;;;21.88;31.17;96448.09;4865085;29;1915;-81
2023/04/12 09:21:12;;;;;;;;;;;;;;;21.77;31.61;96443.78;4917406;29;954;-81
2023/04/12 09:23:38;;;;;;;;;;;;;;;22.02;31.20;96448.13;4921685;29;1034;-81
2023/04/12 09:26:04;;;;;;;;;;;;;;;22.58;31.32;96448.38;4937539;29;932;-80
2023/04/12 09:28:29;;;;;;;;;;;;;;;22.74;31.43;96450.75;4937167;29;1093;-81
2023/04/12 09:30:56;;;;;;;;;;;;;;;22.40;31.92;96454.25;4937901;29;1052;-81
2023/04/12 09:33:34;;;;;;;;;;;;;;;22.29;31.75;96452.78;4905614;29;2075;-81
2023/04/12 09:36:01;;;;;;;;;;;;;;;21.96;32.04;96449.25;4981012;28;962;-81
2023/04/12 09:38:27;;;;;;;;;;;;;;;21.78;32.19;96455.88;4975360;28;1953;-81
2023/04/12 09:40:53;;;;;;;;;;;;;;;21.59;32.17;96456.00;4976314;28;1011;-80
2023/04/12 09:43:19;;;;;;;;;;;;;;;21.92;31.64;96457.19;4975951;28;962;-81
2023/04/12 09:45:45;;;;;;;;;;;;;;;22.06;31.44;96451.53;4976156;28;971;-81
2023/04/12 09:48:17;;;;;;;;;;;;;;;22.24;31.63;96464.78;4959472;28;971;-81
2023/04/12 09:50:43;;;;;;;;;;;;;;;22.36;31.51;96449.56;4960276;28;903;-81
2023/04/12 09:53:17;;;;;;;;;;;;;;;22.65;31.23;96458.56;4959445;28;939;-80
2023/04/12 09:55:42;;;;;;;;;;;;;;;22.30;31.78;96453.56;4960023;28;984;-81
2023/04/12 09:58:08;;;;;;;;;;;;;;;22.04;31.53;96445.59;4959166;28;1992;-81
2023/04/12 10:00:34;;;;;;;;;;;;;;;22.09;31.37;96444.91;4959901;28;1129;-81
2023/04/12 10:03:00;;;;;;;;;;;;;;;22.09;30.98;96435.63;4975498;28;918;-80
2023/04/12 10:05:26;;;;;;;;;;;;;;;22.23;31.37;96437.75;4960185;28;1020;-80
2023/04/12 10:07:52;;;;;;;;;;;;;;;22.43;31.63;96447.59;4960007;28;1223;-80
2023/04/12 10:10:17;;;;;;;;;;;;;;;22.56;31.38;96446.03;4976422;28;1018;-81
2023/04/12 10:12:44;;;;;;;;;;;;;;;22.42;31.88;96454.53;4979279;28;1017;-81
2023/04/12 10:15:15;;;;;;;;;;;;;;;22.20;31.60;96452.09;4978798;28;918;-81
2023/04/12 10:17:44;;;;;;;;;;;;;;;21.85;31.86;96452.66;4937740;28;2122;-81
2023/04/12 10:20:10;;;;;;;;;;;;;;;21.89;31.58;96449.66;4920955;29;1002;-81
2023/04/12 10:22:39;;;;;;;;;;;;;;;21.84;31.69;96454.72;4937193;29;1038;-80
2023/04/12 10:25:08;;;;;;;;;;;;;;;21.85;31.45;96461.94;4937019;29;888;-80
2023/04/12 10:27:34;;;;;;;;;;;;;;;22.01;31.24;96462.75;4971557;28;910;-81
2023/04/12 10:30:17;;;;;;;;;;;;;;;22.40;31.10;96462.75;4978727;28;948;-81
2023/04/12 10:32:43;;;;;;;;;;;;;;;22.74;30.82;96467.75;4978851;28;1218;-81
2023/04/12 10:35:09;;;;;;;;;;;;;;;22.50;31.34;96475.56;4946572;28;991;-81
2023/04/12 10:37:53;;;;;;;;;;;;;;;21.93;31.83;96467.25;4979856;28;1911;-81
2023/04/12 10:40:19;;;;;;;;;;;;;;;21.87;31.89;96469.97;4998616;28;931;-81
2023/04/12 10:42:45;;;;;;;;;;;;;;;21.92;31.82;96466.47;4998628;28;907;-81
2023/04/12 10:45:22;;;;;;;;;;;;;;;21.78;31.58;96473.63;4998407;28;991;-80
2023/04/12 10:47:48;;;;;;;;;;;;;;;22.02;31.25;96475.66;4998035;28;822;-81
2023/04/12 10:50:26;;;;;;;;;;;;;;;22.26;31.35;96472.78;4998764;28;915;-81
2023/04/12 10:53:11;;;;;;;;;;;;;;;22.44;31.19;96471.84;4966282;28;1252;-80
2023/04/12 10:55:37;;;;;;;;;;;;;;;22.35;31.52;96464.22;4938557;29;1176;-80
2023/04/12 10:58:03;;;;;;;;;;;;;;;22.50;31.26;96458.56;4959007;29;1981;-80
2023/04/12 11:00:47;;;;;;;;;;;;;;;22.12;31.35;96470.72;4959436;29;957;-81
2023/04/12 11:03:13;;;;;;;;;;;;;;;22.00;31.01;96461.19;4920910;29;1253;-80
2023/04/12 11:06:05;;;;;;;;;;;;;;;21.88;31.17;96465.09;4889614;29;1272;-81
2023/04/12 11:08:49;;;;;;;;;;;;;;;22.10;31.24;96468.34;4845868;29;986;-80
2023/04/12 11:11:21;;;;;;;;;;;;;;;22.47;31.27;96480.16;4830489;29;1210;-81
2023/04/12 11:13:47;;;;;;;;;;;;;;;22.47;31.33;96482.19;4847410;29;1284;-80
2023/04/12 11:16:12;;;;;;;;;;;;;;;22.45;31.29;96479.88;4864944;29;920;-81
2023/04/12 11:18:38;;;;;;;;;;;;;;;22.13;31.19;96475.91;4848647;29;1903;-81
2023/04/12 11:21:04;;;;;;;;;;;;;;;21.83;31.76;96480.69;4865065;29;969;-81
2023/04/12 11:23:32;;;;;;;;;;;;;;;21.65;31.47;96475.91;4848746;29;1328;-81
2023/04/12 11:25:57;;;;;;;;;;;;;;;22.35;31.69;96479.16;4873110;29;1014;-81
2023/04/12 11:28:24;;;;;;;;;;;;;;;22.91;30.79;96476.56;4886007;29;1192;-81
2023/04/12 11:30:53;;;;;;;;;;;;;;;22.42;31.78;96472.31;4901520;29;916;-81
2023/04/12 11:33:32;;;;;;;;;;;;;;;21.98;31.75;96475.06;4893260;29;1103;-81
2023/04/12 11:35:57;;;;;;;;;;;;;;;21.78;31.37;96472.84;4942955;29;1109;-80
2023/04/12 11:38:23;;;;;;;;;;;;;;;21.68;30.75;96480.63;4926195;29;1898;-81
2023/04/12 11:40:49;;;;;;;;;;;;;;;21.62;31.64;96476.91;4926860;29;1232;-80
2023/04/12 11:43:20;;;;;;;;;;;;;;;22.33;31.28;96473.22;4942365;29;1033;-81
2023/04/12 11:45:46;;;;;;;;;;;;;;;22.93;31.06;96474.00;4983677;28;929;-79
2023/04/12 11:48:11;;;;;;;;;;;;;;;22.39;31.61;96472.53;5001752;28;1330;-81
2023/04/12 11:50:39;;;;;;;;;;;;;;;21.97;31.67;96456.50;5000995;28;924;-81
2023/04/12 11:53:10;;;;;;;;;;;;;;;21.69;31.33;96462.38;5018718;28;903;-81
2023/04/12 11:55:36;;;;;;;;;;;;;;;21.64;31.44;96474.34;4985205;28;1056;-80
2023/04/12 11:58:02;;;;;;;;;;;;;;;22.38;31.63;96465.28;5000772;28;1968;-81
2023/04/12 12:00:30;;;;;;;;;;;;;;;22.77;31.29;96472.44;4985236;28;1124;-81
2023/04/12 12:02:55;;;;;;;;;;;;;;;22.65;31.60;96470.69;5001567;28;912;-81
2023/04/12 12:05:21;;;;;;;;;;;;;;;22.46;31.25;96474.97;4984959;28;1216;-80
2023/04/12 12:07:46;;;;;;;;;;;;;;;22.23;31.20;96480.22;4960985;28;1112;-80
2023/04/12 12:10:12;;;;;;;;;;;;;;;22.18;31.01;96483.75;4961039;28;1099;-81
2023/04/12 12:12:38;;;;;;;;;;;;;;;22.12;31.09;96480.00;4961242;28;969;-80
2023/04/12 12:15:03;;;;;;;;;;;;;;;22.27;31.12;96480.81;4976683;28;1135;-81
2023/04/12 12:17:29;;;;;;;;;;;;;;;22.51;31.88;96494.13;4977348;28;1894;-81
2023/04/12 12:19:55;;;;;;;;;;;;;;;22.86;31.01;96492.19;4944804;28;1049;-81
2023/04/12 12:22:21;;;;;;;;;;;;;;;22.94;31.04;96491.81;4961308;28;1239;-80
2023/04/12 12:24:50;;;;;;;;;;;;;;;22.29;31.71;96506.63;4944503;28;983;-81
2023/04/12 12:27:16;;;;;;;;;;;;;;;22.17;31.25;96510.47;4944883;28;1006;-81
2023/04/12 12:29:42;;;;;;;;;;;;;;;22.18;31.05;96512.06;4976947;28;995;-81
2023/04/12 12:32:11;;;;;;;;;;;;;;;22.22;31.50;96501.31;4928698;28;1028;-81
2023/04/12 12:34:37;;;;;;;;;;;;;;;22.68;31.69;96503.72;4922093;29;1149;-80
2023/04/12 12:37:03;;;;;;;;;;;;;;;23.06;30.98;96507.75;4922185;29;1982;-81
2023/04/12 12:39:29;;;;;;;;;;;;;;;22.99;31.03;96506.06;4922782;29;1204;-80
2023/04/12 12:41:55;;;;;;;;;;;;;;;22.35;31.49;96513.16;4925933;29;1234;-80
2023/04/12 12:44:23;;;;;;;;;;;;;;;21.87;31.86;96525.81;4941633;29;1025;-80
2023/04/12 12:46:49;;;;;;;;;;;;;;;22.04;31.72;96518.44;4926118;29;1239;-80
2023/04/12 12:49:15;;;;;;;;;;;;;;;22.07;31.63;96514.63;4941171;29;958;-81
2023/04/12 12:51:41;;;;;;;;;;;;;;;22.07;31.74;96511.78;4941311;29;1292;-81
2023/04/12 12:54:06;;;;;;;;;;;;;;;22.16;31.39;96514.59;4902982;29;920;-81
2023/04/12 12:56:34;;;;;;;;;;;;;;;22.11;31.72;96501.09;4887687;29;1975;-80
2023/04/12 12:58:59;;;;;;;;;;;;;;;22.39;31.26;96509.38;4899664;29;1012;-80
2023/04/12 13:01:26;;;;;;;;;;;;;;;22.33;31.49;96512.88;4868280;29;1231;-81
2023/04/12 13:03:52;;;;;;;;;;;;;;;22.46;31.17;96514.66;4884381;29;1010;-81